sensor_id;sensor_type;location;lat;lon;timestamp;temperature;humidity
47368;DHT22;34646;47.964;7.982;2023-06-14T00:00:35;21.60;80.90
47368;DHT22;34646;47.964;7.982;2023-06-14T00:06:36;22.50;81.30
47368;DHT22;34646;47.964;7.982;2023-06-14T00:12:38;22.00;71.90
47368;DHT22;34646;47.964;7.982;2023-06-14T00:18:39;21.40;80.50
47368;DHT22;34646;47.964;7.982;2023-06-14T00:24:40;22.00;80.80
47368;DHT22;34646;47.964;7.982;2023-06-14T00:30:40;22.30;80.70
47368;DHT22;34646;47.964;7.982;2023-06-14T00:36:41;21.70;80.40
47368;DHT22;34646;47.964;7.982;2023-06-14T00:42:42;21.80;79.70
47368;DHT22;34646;47.964;7.982;2023-06-14T00:48:44;22.00;80.20
47368;DHT22;34646;47.964;7.982;2023-06-14T00:54:45;21.70;71.70
47368;DHT22;34646;47.964;7.982;2023-06-14T01:00:46;22.00;80.20
47368;DHT22;34646;47.964;7.982;2023-06-14T01:07:11;20.80;67.10
47368;DHT22;34646;47.964;7.982;2023-06-14T01:13:38;21.50;79.70
47368;DHT22;34646;47.964;7.982;2023-06-14T01:19:39;21.60;79.70
47368;DHT22;34646;47.964;7.982;2023-06-14T01:25:43;21.80;79.90
47368;DHT22;34646;47.964;7.982;2023-06-14T01:31:46;21.70;68.90
47368;DHT22;34646;47.964;7.982;2023-06-14T01:37:49;21.80;74.80
47368;DHT22;34646;47.964;7.982;2023-06-14T01:43:50;21.60;74.30
47368;DHT22;34646;47.964;7.982;2023-06-14T01:49:52;21.70;78.90
47368;DHT22;34646;47.964;7.982;2023-06-14T01:55:53;21.30;77.90
47368;DHT22;34646;47.964;7.982;2023-06-14T02:01:54;21.70;77.80
47368;DHT22;34646;47.964;7.982;2023-06-14T02:07:55;21.40;77.70
47368;DHT22;34646;47.964;7.982;2023-06-14T02:13:56;21.80;68.70
47368;DHT22;34646;47.964;7.982;2023-06-14T02:19:57;21.40;77.70
47368;DHT22;34646;47.964;7.982;2023-06-14T02:26:00;21.40;77.40
47368;DHT22;34646;47.964;7.982;2023-06-14T02:32:01;21.40;77.20
47368;DHT22;34646;47.964;7.982;2023-06-14T02:38:01;21.80;77.30
47368;DHT22;34646;47.964;7.982;2023-06-14T02:44:02;21.90;77.40
47368;DHT22;34646;47.964;7.982;2023-06-14T02:50:03;21.40;76.90
47368;DHT22;34646;47.964;7.982;2023-06-14T02:56:04;21.80;77.20
47368;DHT22;34646;47.964;7.982;2023-06-14T03:02:05;21.30;76.80
47368;DHT22;34646;47.964;7.982;2023-06-14T03:08:07;21.70;68.40
47368;DHT22;34646;47.964;7.982;2023-06-14T03:14:09;21.70;77.10
47368;DHT22;34646;47.964;7.982;2023-06-14T03:20:12;21.60;77.20
47368;DHT22;34646;47.964;7.982;2023-06-14T03:26:14;21.60;77.20
47368;DHT22;34646;47.964;7.982;2023-06-14T03:32:20;21.20;69.50
47368;DHT22;34646;47.964;7.982;2023-06-14T03:38:20;21.60;76.80
47368;DHT22;34646;47.964;7.982;2023-06-14T03:44:21;20.70;65.50
47368;DHT22;34646;47.964;7.982;2023-06-14T03:50:22;18.70;68.10
47368;DHT22;34646;47.964;7.982;2023-06-14T03:56:23;18.10;69.40
47368;DHT22;34646;47.964;7.982;2023-06-14T04:08:25;17.80;70.20
47368;DHT22;34646;47.964;7.982;2023-06-14T04:14:26;18.00;70.60
47368;DHT22;34646;47.964;7.982;2023-06-14T04:20:27;17.90;71.10
47368;DHT22;34646;47.964;7.982;2023-06-14T04:26:28;17.70;70.90
47368;DHT22;34646;47.964;7.982;2023-06-14T04:32:30;17.50;71.20
47368;DHT22;34646;47.964;7.982;2023-06-14T04:44:35;17.90;72.10
47368;DHT22;34646;47.964;7.982;2023-06-14T04:50:38;17.50;72.40
47368;DHT22;34646;47.964;7.982;2023-06-14T04:56:42;17.80;67.20
47368;DHT22;34646;47.964;7.982;2023-06-14T05:02:44;19.10;73.70
47368;DHT22;34646;47.964;7.982;2023-06-14T05:08:45;19.20;73.80
47368;DHT22;34646;47.964;7.982;2023-06-14T05:14:46;19.80;74.30
47368;DHT22;34646;47.964;7.982;2023-06-14T05:26:47;19.90;68.00
47368;DHT22;34646;47.964;7.982;2023-06-14T05:32:49;20.30;75.80
47368;DHT22;34646;47.964;7.982;2023-06-14T05:44:51;20.20;76.40
47368;DHT22;34646;47.964;7.982;2023-06-14T05:50:52;20.20;76.80
47368;DHT22;34646;47.964;7.982;2023-06-14T05:56:52;20.60;77.30
47368;DHT22;34646;47.964;7.982;2023-06-14T06:08:57;20.10;77.60
47368;DHT22;34646;47.964;7.982;2023-06-14T06:14:59;20.40;78.00
47368;DHT22;34646;47.964;7.982;2023-06-14T06:20:59;20.20;69.80
47368;DHT22;34646;47.964;7.982;2023-06-14T06:27:00;20.70;78.60
47368;DHT22;34646;47.964;7.982;2023-06-14T06:33:01;20.10;77.00
47368;DHT22;34646;47.964;7.982;2023-06-14T06:39:02;20.20;78.70
47368;DHT22;34646;47.964;7.982;2023-06-14T06:45:10;20.60;79.10
47368;DHT22;34646;47.964;7.982;2023-06-14T06:51:10;20.60;79.20
47368;DHT22;34646;47.964;7.982;2023-06-14T06:57:13;20.30;79.30
47368;DHT22;34646;47.964;7.982;2023-06-14T07:03:14;20.60;79.60
47368;DHT22;34646;47.964;7.982;2023-06-14T07:09:15;20.60;79.70
47368;DHT22;34646;47.964;7.982;2023-06-14T07:15:16;20.50;71.40
47368;DHT22;34646;47.964;7.982;2023-06-14T07:27:18;20.30;80.10
47368;DHT22;34646;47.964;7.982;2023-06-14T07:33:18;20.80;80.50
47368;DHT22;34646;47.964;7.982;2023-06-14T07:45:21;20.40;80.60
47368;DHT22;34646;47.964;7.982;2023-06-14T07:51:21;20.30;80.60
47368;DHT22;34646;47.964;7.982;2023-06-14T07:57:23;20.80;81.00
47368;DHT22;34646;47.964;7.982;2023-06-14T08:03:23;20.50;80.80
47368;DHT22;34646;47.964;7.982;2023-06-14T08:15:25;20.30;80.90
47368;DHT22;34646;47.964;7.982;2023-06-14T08:21:26;20.50;81.10
47368;DHT22;34646;47.964;7.982;2023-06-14T08:27:30;20.60;77.70
47368;DHT22;34646;47.964;7.982;2023-06-14T08:33:30;20.90;81.40
47368;DHT22;34646;47.964;7.982;2023-06-14T08:39:33;20.80;74.70
47368;DHT22;34646;47.964;7.982;2023-06-14T08:45:34;20.70;81.40
47368;DHT22;34646;47.964;7.982;2023-06-14T08:51:36;20.70;81.50
47368;DHT22;34646;47.964;7.982;2023-06-14T08:57:38;21.00;81.80
47368;DHT22;34646;47.964;7.982;2023-06-14T09:03:42;21.10;81.90
47368;DHT22;34646;47.964;7.982;2023-06-14T09:09:43;20.70;81.70
47368;DHT22;34646;47.964;7.982;2023-06-14T09:15:44;21.00;81.80
47368;DHT22;34646;47.964;7.982;2023-06-14T09:21:47;21.00;81.40
47368;DHT22;34646;47.964;7.982;2023-06-14T09:27:48;20.60;81.70
47368;DHT22;34646;47.964;7.982;2023-06-14T09:33:49;20.90;72.60
47368;DHT22;34646;47.964;7.982;2023-06-14T09:39:50;20.80;81.60
47368;DHT22;34646;47.964;7.982;2023-06-14T09:45:51;20.80;81.60
47368;DHT22;34646;47.964;7.982;2023-06-14T09:51:53;20.40;81.00
47368;DHT22;34646;47.964;7.982;2023-06-14T09:57:55;20.90;81.70
47368;DHT22;34646;47.964;7.982;2023-06-14T10:04:03;20.50;81.50
47368;DHT22;34646;47.964;7.982;2023-06-14T10:10:05;20.70;81.60
47368;DHT22;34646;47.964;7.982;2023-06-14T10:16:34;20.70;81.40
47368;DHT22;34646;47.964;7.982;2023-06-14T10:22:43;20.70;81.60
47368;DHT22;34646;47.964;7.982;2023-06-14T10:29:01;20.70;81.80
47368;DHT22;34646;47.964;7.982;2023-06-14T10:41:09;20.60;81.50
47368;DHT22;34646;47.964;7.982;2023-06-14T10:59:24;20.80;81.10
47368;DHT22;34646;47.964;7.982;2023-06-14T11:05:26;21.00;81.30
47368;DHT22;34646;47.964;7.982;2023-06-14T11:11:32;20.90;81.40
47368;DHT22;34646;47.964;7.982;2023-06-14T11:17:36;20.90;81.60
47368;DHT22;34646;47.964;7.982;2023-06-14T11:23:36;20.70;81.60
47368;DHT22;34646;47.964;7.982;2023-06-14T11:29:37;20.50;81.90
47368;DHT22;34646;47.964;7.982;2023-06-14T11:35:38;20.80;82.20
47368;DHT22;34646;47.964;7.982;2023-06-14T11:41:43;20.80;82.10
47368;DHT22;34646;47.964;7.982;2023-06-14T11:47:44;20.90;82.00
47368;DHT22;34646;47.964;7.982;2023-06-14T11:53:45;21.10;82.40
47368;DHT22;34646;47.964;7.982;2023-06-14T11:59:46;20.80;74.50
47368;DHT22;34646;47.964;7.982;2023-06-14T12:11:48;20.70;82.10
47368;DHT22;34646;47.964;7.982;2023-06-14T12:17:49;20.90;82.30
47368;DHT22;34646;47.964;7.982;2023-06-14T12:23:51;21.00;82.60
47368;DHT22;34646;47.964;7.982;2023-06-14T12:30:02;21.40;82.70
47368;DHT22;34646;47.964;7.982;2023-06-14T12:36:04;21.40;82.90
47368;DHT22;34646;47.964;7.982;2023-06-14T12:42:05;20.80;82.30
47368;DHT22;34646;47.964;7.982;2023-06-14T12:48:06;21.10;81.90
47368;DHT22;34646;47.964;7.982;2023-06-14T13:00:11;21.00;82.20
47368;DHT22;34646;47.964;7.982;2023-06-14T13:06:13;20.70;82.10
47368;DHT22;34646;47.964;7.982;2023-06-14T13:12:14;21.00;77.80
47368;DHT22;34646;47.964;7.982;2023-06-14T13:18:15;21.00;82.50
47368;DHT22;34646;47.964;7.982;2023-06-14T13:30:16;20.90;82.90
47368;DHT22;34646;47.964;7.982;2023-06-14T13:42:18;21.40;83.10
47368;DHT22;34646;47.964;7.982;2023-06-14T13:54:20;21.20;82.00
47368;DHT22;34646;47.964;7.982;2023-06-14T14:00:21;21.20;74.90
47368;DHT22;34646;47.964;7.982;2023-06-14T14:06:22;21.50;83.10
47368;DHT22;34646;47.964;7.982;2023-06-14T14:12:23;21.20;77.10
47368;DHT22;34646;47.964;7.982;2023-06-14T14:18:25;21.10;82.90
47368;DHT22;34646;47.964;7.982;2023-06-14T14:24:26;21.40;83.10
47368;DHT22;34646;47.964;7.982;2023-06-14T14:30:27;21.20;83.00
47368;DHT22;34646;47.964;7.982;2023-06-14T14:36:28;21.00;82.90
47368;DHT22;34646;47.964;7.982;2023-06-14T14:42:28;21.20;83.00
47368;DHT22;34646;47.964;7.982;2023-06-14T14:54:30;21.60;83.20
47368;DHT22;34646;47.964;7.982;2023-06-14T15:00:31;21.20;83.00
47368;DHT22;34646;47.964;7.982;2023-06-14T15:12:36;21.20;83.00
47368;DHT22;34646;47.964;7.982;2023-06-14T15:18:36;21.10;76.40
47368;DHT22;34646;47.964;7.982;2023-06-14T15:24:37;21.50;83.10
47368;DHT22;34646;47.964;7.982;2023-06-14T15:30:38;21.80;83.30
47368;DHT22;34646;47.964;7.982;2023-06-14T15:36:38;21.50;83.10
47368;DHT22;34646;47.964;7.982;2023-06-14T15:42:39;21.70;83.30
47368;DHT22;34646;47.964;7.982;2023-06-14T15:48:40;21.60;83.20
47368;DHT22;34646;47.964;7.982;2023-06-14T16:00:41;21.70;82.40
47368;DHT22;34646;47.964;7.982;2023-06-14T16:06:42;21.60;83.50
47368;DHT22;34646;47.964;7.982;2023-06-14T16:12:43;21.70;83.60
47368;DHT22;34646;47.964;7.982;2023-06-14T16:18:44;21.70;77.70
47368;DHT22;34646;47.964;7.982;2023-06-14T16:24:45;21.30;83.40
47368;DHT22;34646;47.964;7.982;2023-06-14T16:30:45;21.70;83.70
47368;DHT22;34646;47.964;7.982;2023-06-14T16:36:46;21.90;84.60
47368;DHT22;34646;47.964;7.982;2023-06-14T16:48:48;21.50;84.60
47368;DHT22;34646;47.964;7.982;2023-06-14T16:54:49;21.20;79.60
47368;DHT22;34646;47.964;7.982;2023-06-14T17:06:50;21.40;84.90
47368;DHT22;34646;47.964;7.982;2023-06-14T17:12:51;21.60;85.00
47368;DHT22;34646;47.964;7.982;2023-06-14T17:18:52;21.60;85.10
47368;DHT22;34646;47.964;7.982;2023-06-14T17:24:53;21.70;85.30
47368;DHT22;34646;47.964;7.982;2023-06-14T17:30:53;21.90;85.50
47368;DHT22;34646;47.964;7.982;2023-06-14T17:36:54;21.90;85.40
47368;DHT22;34646;47.964;7.982;2023-06-14T17:42:55;22.00;85.50
47368;DHT22;34646;47.964;7.982;2023-06-14T17:48:56;22.10;85.30
47368;DHT22;34646;47.964;7.982;2023-06-14T17:54:57;21.80;85.10
47368;DHT22;34646;47.964;7.982;2023-06-14T18:06:58;21.90;85.00
47368;DHT22;34646;47.964;7.982;2023-06-14T18:13:03;21.80;81.60
47368;DHT22;34646;47.964;7.982;2023-06-14T18:19:04;21.70;84.80
47368;DHT22;34646;47.964;7.982;2023-06-14T18:25:05;21.70;84.80
47368;DHT22;34646;47.964;7.982;2023-06-14T18:31:05;21.70;84.90
47368;DHT22;34646;47.964;7.982;2023-06-14T18:37:07;21.90;85.10
47368;DHT22;34646;47.964;7.982;2023-06-14T18:43:07;21.60;85.10
47368;DHT22;34646;47.964;7.982;2023-06-14T18:49:08;21.90;79.50
47368;DHT22;34646;47.964;7.982;2023-06-14T18:55:09;22.20;85.40
47368;DHT22;34646;47.964;7.982;2023-06-14T19:01:09;21.40;85.10
47368;DHT22;34646;47.964;7.982;2023-06-14T19:07:12;21.90;85.50
47368;DHT22;34646;47.964;7.982;2023-06-14T19:13:12;21.90;85.60
47368;DHT22;34646;47.964;7.982;2023-06-14T19:19:13;21.70;85.50
47368;DHT22;34646;47.964;7.982;2023-06-14T19:31:15;21.90;85.60
47368;DHT22;34646;47.964;7.982;2023-06-14T19:37:16;21.70;85.50
47368;DHT22;34646;47.964;7.982;2023-06-14T19:55:19;21.80;85.50
47368;DHT22;34646;47.964;7.982;2023-06-14T20:01:19;22.20;85.70
47368;DHT22;34646;47.964;7.982;2023-06-14T20:07:20;21.50;82.80
47368;DHT22;34646;47.964;7.982;2023-06-14T20:13:21;21.30;85.10
47368;DHT22;34646;47.964;7.982;2023-06-14T20:19:22;21.70;85.50
47368;DHT22;34646;47.964;7.982;2023-06-14T20:25:22;21.80;83.70
47368;DHT22;34646;47.964;7.982;2023-06-14T20:31:23;21.80;85.30
47368;DHT22;34646;47.964;7.982;2023-06-14T20:37:24;21.60;85.10
47368;DHT22;34646;47.964;7.982;2023-06-14T20:43:25;21.90;85.20
47368;DHT22;34646;47.964;7.982;2023-06-14T20:49:25;21.70;85.00
47368;DHT22;34646;47.964;7.982;2023-06-14T20:55:27;21.70;85.00
47368;DHT22;34646;47.964;7.982;2023-06-14T21:01:28;21.50;77.50
47368;DHT22;34646;47.964;7.982;2023-06-14T21:07:35;21.70;86.00
47368;DHT22;34646;47.964;7.982;2023-06-14T21:13:36;21.30;85.80
47368;DHT22;34646;47.964;7.982;2023-06-14T21:19:36;21.60;86.00
47368;DHT22;34646;47.964;7.982;2023-06-14T21:25:41;21.80;86.10
47368;DHT22;34646;47.964;7.982;2023-06-14T21:37:43;21.70;86.00
47368;DHT22;34646;47.964;7.982;2023-06-14T21:55:46;22.00;86.20
47368;DHT22;34646;47.964;7.982;2023-06-14T22:07:48;21.60;85.90
47368;DHT22;34646;47.964;7.982;2023-06-14T22:13:49;21.60;86.00
47368;DHT22;34646;47.964;7.982;2023-06-14T22:19:50;21.60;86.00
47368;DHT22;34646;47.964;7.982;2023-06-14T22:25:51;22.10;85.50
47368;DHT22;34646;47.964;7.982;2023-06-14T22:31:52;21.60;85.90
47368;DHT22;34646;47.964;7.982;2023-06-14T22:37:53;21.70;85.90
47368;DHT22;34646;47.964;7.982;2023-06-14T22:49:55;21.70;85.70
47368;DHT22;34646;47.964;7.982;2023-06-14T22:55:57;21.10;85.30
47368;DHT22;34646;47.964;7.982;2023-06-14T23:01:59;21.70;85.50
47368;DHT22;34646;47.964;7.982;2023-06-14T23:08:00;21.30;85.10
47368;DHT22;34646;47.964;7.982;2023-06-14T23:14:00;21.80;85.30
47368;DHT22;34646;47.964;7.982;2023-06-14T23:20:02;21.60;85.10
47368;DHT22;34646;47.964;7.982;2023-06-14T23:26:10;21.70;85.10
47368;DHT22;34646;47.964;7.982;2023-06-14T23:32:10;21.60;85.00
47368;DHT22;34646;47.964;7.982;2023-06-14T23:38:11;21.60;84.90
47368;DHT22;34646;47.964;7.982;2023-06-14T23:44:13;21.60;84.90
47368;DHT22;34646;47.964;7.982;2023-06-14T23:50:14;21.50;84.70
47368;DHT22;34646;47.964;7.982;2023-06-14T23:56:15;21.40;84.60
